createdAt,value
2022-08-23T00:05:07.508Z,24.46
2022-08-23T00:10:14.352Z,24.45
2022-08-23T00:15:16.928Z,24.43
2022-08-23T00:20:18.635Z,24.47
2022-08-23T00:25:20.049Z,24.46
2022-08-23T00:30:21.504Z,24.46
2022-08-23T00:35:27.127Z,24.41
2022-08-23T00:40:28.905Z,24.42
2022-08-23T00:45:55.483Z,24.48
2022-08-23T00:51:08.166Z,24.45
2022-08-23T00:56:10.832Z,24.47
2022-08-23T01:01:12.321Z,24.46
2022-08-23T01:06:18.856Z,24.43
2022-08-23T01:11:26.512Z,24.43
2022-08-23T01:16:33.508Z,24.42
2022-08-23T01:21:46.256Z,24.44
2022-08-23T01:26:47.956Z,24.42
2022-08-23T01:31:50.257Z,24.45
2022-08-23T01:36:51.677Z,24.40
2022-08-23T01:41:53.079Z,24.35
2022-08-23T01:46:55.038Z,24.37
2022-08-23T01:52:00.064Z,24.38
2022-08-23T01:57:01.473Z,24.43
2022-08-23T02:02:03.187Z,24.37
2022-08-23T02:07:04.694Z,24.38
2022-08-23T02:12:06.168Z,24.42
2022-08-23T02:17:07.564Z,24.40
2022-08-23T02:22:08.982Z,24.38
2022-08-23T02:27:10.462Z,24.39
2022-08-23T02:32:13.081Z,24.37
2022-08-23T02:37:14.545Z,24.39
2022-08-23T02:42:17.612Z,24.35
2022-08-23T02:47:19.385Z,24.35
2022-08-23T02:52:20.809Z,24.36
2022-08-23T02:57:22.232Z,24.36
2022-08-23T03:02:23.657Z,24.38
2022-08-23T03:07:25.132Z,24.35
2022-08-23T03:12:27.109Z,24.33
2022-08-23T03:17:28.526Z,24.37
2022-08-23T03:22:29.974Z,24.34
2022-08-23T03:27:31.520Z,24.35
2022-08-23T03:32:39.692Z,24.36
2022-08-23T03:37:54.703Z,24.37
2022-08-23T03:42:56.589Z,24.33
2022-08-23T03:47:58.397Z,24.38
2022-08-23T03:52:59.822Z,24.35
2022-08-23T03:58:01.395Z,24.35
2022-08-23T04:03:03.053Z,24.30
2022-08-23T04:08:10.685Z,24.32
2022-08-23T04:13:12.104Z,24.28
2022-08-23T04:18:13.908Z,24.40
2022-08-23T04:23:15.326Z,24.32
2022-08-23T04:28:16.753Z,24.35
2022-08-23T04:33:18.368Z,24.30
2022-08-23T04:38:24.853Z,24.28
2022-08-23T04:43:26.649Z,24.34
2022-08-23T04:48:28.057Z,24.25
2022-08-23T04:53:30.359Z,24.27
2022-08-23T04:58:32.684Z,24.31
2022-08-23T05:03:34.412Z,24.27
2022-08-23T05:08:35.878Z,24.28
2022-08-23T05:13:37.698Z,24.31
2022-08-23T05:18:39.099Z,24.26
2022-08-23T05:23:40.536Z,24.36
2022-08-23T05:28:43.652Z,24.27
2022-08-23T05:33:45.093Z,24.35
2022-08-23T05:38:49.722Z,24.38
2022-08-23T05:43:51.132Z,24.35
2022-08-23T05:48:53.068Z,24.35
2022-08-23T05:53:56.610Z,24.32
2022-08-23T05:59:00.821Z,24.37
2022-08-23T06:04:03.037Z,24.38
2022-08-23T06:09:06.732Z,24.33
2022-08-23T06:14:08.852Z,24.38
2022-08-23T06:19:10.501Z,24.40
2022-08-23T06:24:12.267Z,24.43
2022-08-23T06:29:15.575Z,24.45
2022-08-23T06:34:24.232Z,24.39
2022-08-23T06:39:27.012Z,24.44
2022-08-23T06:44:28.606Z,24.40
2022-08-23T06:49:30.182Z,24.46
2022-08-23T06:54:33.660Z,24.44
2022-08-23T06:59:35.353Z,24.63
2022-08-23T07:04:38.336Z,24.82
2022-08-23T07:09:39.961Z,24.95
2022-08-23T07:14:42.378Z,24.97
2022-08-23T07:19:44.064Z,24.74
2022-08-23T07:24:45.817Z,24.85
2022-08-23T07:29:47.243Z,24.94
2022-08-23T07:34:48.656Z,24.78
2022-08-23T07:39:50.121Z,25.06
2022-08-23T07:44:52.804Z,25.04
2022-08-23T07:49:55.448Z,24.97
2022-08-23T07:54:56.866Z,25.01
2022-08-23T07:59:58.401Z,25.10
2022-08-23T08:04:59.896Z,25.11
2022-08-23T08:10:01.552Z,25.09
2022-08-23T08:15:03.176Z,25.01
2022-08-23T08:20:05.161Z,25.03
2022-08-23T08:25:06.898Z,25.03
2022-08-23T08:30:09.164Z,25.03
2022-08-23T08:35:10.599Z,24.96
2022-08-23T08:40:12.116Z,25.08
2022-08-23T08:45:21.780Z,24.96
2022-08-23T08:50:34.093Z,24.97
2022-08-23T08:55:46.402Z,24.98
2022-08-23T09:00:48.617Z,24.97
2022-08-23T09:06:18.070Z,24.94
2022-08-23T09:11:45.397Z,24.97
2022-08-23T09:16:53.136Z,24.85
2022-08-23T09:22:00.562Z,24.98
2022-08-23T09:27:02.374Z,24.98
2022-08-23T09:32:06.464Z,25.02
2022-08-23T09:37:20.717Z,25.07
2022-08-23T09:42:40.286Z,24.94
2022-08-23T09:47:44.855Z,24.95
2022-08-23T09:52:46.794Z,24.97
2022-08-23T09:57:48.205Z,24.95
2022-08-23T10:02:50.204Z,25.03
2022-08-23T10:08:01.298Z,24.99
2022-08-23T10:13:04.067Z,25.03
2022-08-23T10:18:10.928Z,25.03
2022-08-23T10:23:19.360Z,24.99
2022-08-23T10:29:17.267Z,25.07
2022-08-23T10:34:50.677Z,25.10
2022-08-23T10:40:04.730Z,24.95
2022-08-23T10:45:18.464Z,24.97
2022-08-23T10:50:20.560Z,25.04
2022-08-23T10:55:35.816Z,24.95
2022-08-23T11:00:38.357Z,25.02
2022-08-23T11:05:40.644Z,25.05
2022-08-23T11:10:55.778Z,25.06
2022-08-23T11:16:01.039Z,25.04
2022-08-23T11:21:05.268Z,25.07
2022-08-23T11:26:29.676Z,25.09
2022-08-23T11:31:34.433Z,25.07
2022-08-23T11:36:36.110Z,25.16
2022-08-23T11:42:00.796Z,25.08
2022-08-23T11:47:03.996Z,25.06
2022-08-23T11:52:27.185Z,25.17
2022-08-23T11:57:56.727Z,25.10
2022-08-23T12:03:05.644Z,25.18
2022-08-23T12:08:07.945Z,25.05
2022-08-23T12:13:18.463Z,25.08
2022-08-23T12:18:25.105Z,25.05
2022-08-23T12:23:26.741Z,25.16
2022-08-23T12:28:43.756Z,25.14
2022-08-23T12:33:53.632Z,25.16
2022-08-23T12:39:08.759Z,25.15
2022-08-23T12:44:10.458Z,25.16
2022-08-23T12:49:28.797Z,25.30
2022-08-23T12:54:36.570Z,25.17
2022-08-23T12:59:52.189Z,25.29
2022-08-23T13:04:55.586Z,25.45
2022-08-23T13:09:56.994Z,25.29
2022-08-23T13:15:02.906Z,25.20
2022-08-23T13:20:07.190Z,25.26
2022-08-23T13:25:32.014Z,25.32
2022-08-23T13:30:37.575Z,25.33
2022-08-23T13:35:43.556Z,25.36
2022-08-23T13:40:56.126Z,25.28
2022-08-23T13:46:10.091Z,25.38
2022-08-23T13:51:38.858Z,25.35
2022-08-23T13:56:49.940Z,25.42
2022-08-23T14:01:51.388Z,25.46
2022-08-23T14:06:52.815Z,25.47
2022-08-23T14:11:58.540Z,25.40
2022-08-23T14:17:02.812Z,25.48
2022-08-23T14:22:04.757Z,25.58
2022-08-23T14:27:07.092Z,25.34
2022-08-23T14:32:08.493Z,25.31
2022-08-23T14:42:31.671Z,25.11
2022-08-23T14:47:35.446Z,25.03
2022-08-23T14:52:37.917Z,25.13
2022-08-23T14:57:39.358Z,25.01
2022-08-23T15:02:44.665Z,24.95
2022-08-23T15:07:46.078Z,24.92
2022-08-23T15:13:19.558Z,24.92
2022-08-23T15:18:09.297Z,25.00
2022-08-23T15:23:10.708Z,24.97
2022-08-23T15:28:13.643Z,25.10
2022-08-23T15:33:15.257Z,25.05
2022-08-23T15:38:17.930Z,25.08
2022-08-23T15:43:20.076Z,25.17
2022-08-23T15:48:27.369Z,25.06
2022-08-23T15:53:28.777Z,24.99
2022-08-23T15:58:30.210Z,25.10
2022-08-23T16:03:31.963Z,25.02
2022-08-23T16:08:34.832Z,24.97
2022-08-23T16:13:40.548Z,25.09
2022-08-23T16:18:42.109Z,25.01
2022-08-23T16:23:44.242Z,25.05
2022-08-23T16:28:46.885Z,25.00
2022-08-23T16:33:48.341Z,25.00
2022-08-23T16:38:50.892Z,24.99
2022-08-23T16:43:52.381Z,25.17
2022-08-23T16:48:53.786Z,25.16
2022-08-23T16:54:02.757Z,25.10
2022-08-23T16:59:05.937Z,25.04
2022-08-23T17:04:07.338Z,25.02
2022-08-23T17:09:09.188Z,25.10
2022-08-23T17:14:12.504Z,24.96
2022-08-23T17:19:13.969Z,25.03
2022-08-23T17:24:15.370Z,25.14
2022-08-23T17:29:16.838Z,24.95
2022-08-23T17:34:21.761Z,25.14
2022-08-23T17:39:27.153Z,25.09
2022-08-23T17:44:28.558Z,24.97
2022-08-23T17:49:30.192Z,25.20
2022-08-23T17:54:32.477Z,25.13
2022-08-23T17:59:33.889Z,25.00
2022-08-23T18:04:35.415Z,25.05
2022-08-23T18:09:41.251Z,24.97
2022-08-23T18:14:46.521Z,25.21
2022-08-23T18:19:47.986Z,25.10
2022-08-23T18:24:49.430Z,24.95
2022-08-23T18:29:51.691Z,25.12
2022-08-23T18:34:53.305Z,24.99
2022-08-23T18:39:54.746Z,25.03
2022-08-23T18:44:56.160Z,25.06
2022-08-23T18:49:57.569Z,25.06
2022-08-23T18:54:59.053Z,24.99
2022-08-23T19:00:00.456Z,25.02
2022-08-23T19:05:03.120Z,25.03
2022-08-23T19:10:04.844Z,25.04
2022-08-23T19:15:06.898Z,25.09
2022-08-23T19:20:08.989Z,24.97
2022-08-23T19:25:10.550Z,25.08
2022-08-23T19:30:12.505Z,24.94
2022-08-23T19:35:18.808Z,24.88
2022-08-23T19:40:20.552Z,24.91
2022-08-23T19:45:22.118Z,25.05
2022-08-23T19:50:23.876Z,24.98
2022-08-23T19:55:27.212Z,24.94
2022-08-23T20:00:31.359Z,25.00
2022-08-23T20:05:34.153Z,25.05
2022-08-23T20:10:35.562Z,25.02
2022-08-23T20:15:38.642Z,25.07
2022-08-23T20:20:40.853Z,24.93
2022-08-23T20:25:42.717Z,25.03
2022-08-23T20:30:44.128Z,24.94
2022-08-23T20:35:45.616Z,24.93
2022-08-23T20:40:47.008Z,24.81
2022-08-23T20:45:49.045Z,24.99
2022-08-23T20:50:50.452Z,24.89
2022-08-23T20:55:51.904Z,24.96
2022-08-23T21:00:53.502Z,24.90
2022-08-23T21:06:08.500Z,24.87
2022-08-23T21:11:10.212Z,24.81
2022-08-23T21:16:11.986Z,24.89
2022-08-23T21:21:13.550Z,24.91
2022-08-23T21:26:15.760Z,24.89
2022-08-23T21:31:20.422Z,24.90
2022-08-23T21:36:22.301Z,24.82
2022-08-23T21:41:28.964Z,24.76
2022-08-23T21:46:30.419Z,24.72
2022-08-23T21:51:31.924Z,24.76
2022-08-23T21:56:36.848Z,24.78
2022-08-23T22:01:38.550Z,24.74
2022-08-23T22:06:41.475Z,24.73
2022-08-23T22:11:43.672Z,24.81
2022-08-23T22:16:45.084Z,24.71
2022-08-23T22:21:47.312Z,24.74
2022-08-23T22:26:48.712Z,24.80
2022-08-23T22:31:50.153Z,24.71
2022-08-23T22:36:52.638Z,24.64
2022-08-23T22:41:54.838Z,24.70
2022-08-23T22:46:57.102Z,24.68
2022-08-23T22:51:58.508Z,24.70
2022-08-23T22:57:00.130Z,24.65
2022-08-23T23:02:03.397Z,24.73
2022-08-23T23:07:05.104Z,24.66
2022-08-23T23:12:06.557Z,24.55
2022-08-23T23:17:08.023Z,24.61
2022-08-23T23:22:09.477Z,24.63
2022-08-23T23:27:10.892Z,24.63
2022-08-23T23:32:12.304Z,24.59
2022-08-23T23:37:14.692Z,24.58
2022-08-23T23:42:16.229Z,24.55
2022-08-23T23:47:17.758Z,24.59
2022-08-23T23:52:19.599Z,24.57
2022-08-23T23:57:21.156Z,24.51
